Time;durP1;ratioP1;P1;durP2;ratioP2;P2;SDS_P1;SDS_P2;PMS_P1;PMS_P2;Temp;Humidity;BMP_temperature;BMP_pressure;BME280_temperature;BME280_humidity;BME280_pressure;Samples;Min_cycle;Max_cycle;Signal;HPM_P1;HPM_P2
2021/08/19 00:00:07;;;;;;;2.60;2.28;;;14.70;99.90;;;;;;5010423;28;20099;-89
2021/08/19 00:02:55;;;;;;;2.38;2.17;;;14.70;99.90;;;;;;5004824;28;20355;-88
2021/08/19 00:05:44;;;;;;;2.92;2.08;;;14.70;99.90;;;;;;4995604;28;20440;-88
2021/08/19 00:08:33;;;;;;;1.95;1.83;;;14.80;99.90;;;;;;5011233;28;20115;-88
2021/08/19 00:11:20;;;;;;;2.20;2.00;;;14.80;99.90;;;;;;5006324;28;20078;-88
2021/08/19 00:14:08;;;;;;;3.13;2.22;;;14.90;99.90;;;;;;4994217;28;20111;-88
2021/08/19 00:17:01;;;;;;;3.88;1.85;;;14.90;99.90;;;;;;4999389;28;20096;-89
2021/08/19 00:19:48;;;;;;;2.00;1.67;;;15.00;99.90;;;;;;4997552;28;20038;-88
2021/08/19 00:22:36;;;;;;;3.28;2.20;;;15.00;99.90;;;;;;4995916;28;20043;-88
2021/08/19 00:25:25;;;;;;;4.35;1.80;;;14.90;99.90;;;;;;4998779;28;20486;-88
2021/08/19 00:28:12;;;;;;;2.72;2.20;;;15.00;99.90;;;;;;4991244;28;20178;-89
2021/08/19 00:31:00;;;;;;;3.03;2.22;;;15.00;99.90;;;;;;4996610;28;20113;-89
2021/08/19 00:33:47;;;;;;;2.28;2.00;;;15.00;99.90;;;;;;5003927;28;20105;-89
2021/08/19 00:36:35;;;;;;;2.78;2.50;;;15.00;99.90;;;;;;4998803;28;20101;-88
2021/08/19 00:39:22;;;;;;;3.92;1.95;;;15.00;99.90;;;;;;5000751;28;20152;-88
2021/08/19 00:42:09;;;;;;;3.78;2.30;;;15.00;99.90;;;;;;4978829;28;20046;-89
2021/08/19 00:44:58;;;;;;;4.25;2.65;;;15.00;99.90;;;;;;4997183;28;20046;-89
2021/08/19 00:47:45;;;;;;;2.33;2.03;;;15.00;99.90;;;;;;5005500;28;20104;-87
2021/08/19 00:50:33;;;;;;;1.85;1.75;;;15.00;99.90;;;;;;4992564;28;20117;-86
2021/08/19 00:53:21;;;;;;;1.98;1.88;;;15.00;99.90;;;;;;4997692;28;20129;-87
2021/08/19 00:56:08;;;;;;;2.90;1.90;;;15.00;99.90;;;;;;4998058;28;20042;-88
2021/08/19 00:58:57;;;;;;;3.55;1.92;;;15.00;99.90;;;;;;4999470;28;20038;-89
2021/08/19 01:01:44;;;;;;;1.90;1.80;;;15.00;99.90;;;;;;5011814;28;20109;-88
2021/08/19 01:04:34;;;;;;;2.03;1.90;;;15.10;99.90;;;;;;5002729;28;20049;-88
2021/08/19 01:07:21;;;;;;;1.90;1.70;;;15.00;99.90;;;;;;4997875;28;20097;-88
2021/08/19 01:10:11;;;;;;;1.80;1.70;;;15.00;99.90;;;;;;5013789;28;20056;-89
2021/08/19 01:12:58;;;;;;;2.78;1.77;;;15.00;99.90;;;;;;5008192;28;20141;-86
2021/08/19 01:15:45;;;;;;;3.58;1.67;;;15.00;99.90;;;;;;5007355;28;20502;-88
2021/08/19 01:18:44;;;;;;;2.58;2.05;;;15.00;99.90;;;;;;5011652;28;20497;-88
2021/08/19 01:21:32;;;;;;;2.47;1.90;;;15.00;99.90;;;;;;5014560;28;20061;-87
2021/08/19 01:24:19;;;;;;;3.13;1.73;;;15.00;99.90;;;;;;5009370;28;20053;-88
2021/08/19 01:27:14;;;;;;;3.80;2.47;;;15.00;99.90;;;;;;4996552;28;20043;-88
2021/08/19 01:30:02;;;;;;;2.10;1.90;;;15.00;99.90;;;;;;5004531;28;20132;-88
2021/08/19 01:32:49;;;;;;;2.00;1.80;;;15.10;99.90;;;;;;5002625;28;20128;-87
2021/08/19 01:35:37;;;;;;;3.15;1.98;;;15.10;99.90;;;;;;4992603;28;20063;-87
2021/08/19 01:38:32;;;;;;;2.78;1.80;;;15.10;99.90;;;;;;5006180;28;20088;-87
2021/08/19 01:41:20;;;;;;;2.78;1.75;;;15.10;99.90;;;;;;5011413;28;20760;-87
2021/08/19 01:44:09;;;;;;;2.20;1.73;;;15.10;99.90;;;;;;4995109;28;20116;-87
2021/08/19 01:46:58;;;;;;;1.95;1.60;;;15.10;99.90;;;;;;5006820;28;20185;-88
2021/08/19 01:49:45;;;;;;;2.60;1.75;;;15.10;99.90;;;;;;5001984;28;20050;-87
2021/08/19 01:52:33;;;;;;;1.90;1.70;;;15.10;99.90;;;;;;5000553;28;20099;-88
2021/08/19 01:55:21;;;;;;;1.75;1.65;;;15.10;99.90;;;;;;5011526;28;20058;-88
2021/08/19 01:58:11;;;;;;;2.42;1.60;;;15.00;99.90;;;;;;5007244;28;20098;-90
2021/08/19 02:00:58;;;;;;;2.40;1.98;;;15.00;99.90;;;;;;5010453;28;20137;-89
2021/08/19 02:03:45;;;;;;;1.75;1.65;;;15.00;99.90;;;;;;4995384;28;20046;-90
2021/08/19 02:06:33;;;;;;;2.42;1.90;;;15.10;99.90;;;;;;5004775;28;20510;-90
2021/08/19 02:09:20;;;;;;;1.95;1.70;;;15.10;99.90;;;;;;5008841;28;20434;-89
2021/08/19 02:12:08;;;;;;;2.05;1.75;;;15.00;99.90;;;;;;5005568;28;20376;-89
2021/08/19 02:14:56;;;;;;;2.67;2.10;;;15.00;99.90;;;;;;4998745;28;20447;-89
2021/08/19 02:17:43;;;;;;;1.88;1.77;;;15.00;99.90;;;;;;5013892;28;20107;-87
2021/08/19 02:20:30;;;;;;;3.30;2.15;;;14.90;99.90;;;;;;5011584;28;20402;-88
2021/08/19 02:23:17;;;;;;;6.18;2.00;;;14.90;99.90;;;;;;5023442;28;20053;-86
2021/08/19 02:26:05;;;;;;;3.00;1.90;;;14.90;99.90;;;;;;5006064;28;20133;-89
2021/08/19 02:28:53;;;;;;;2.92;2.22;;;14.90;99.90;;;;;;5016744;28;20367;-89
2021/08/19 02:31:44;;;;;;;3.22;2.05;;;14.90;99.90;;;;;;4995866;28;20046;-89
2021/08/19 02:34:32;;;;;;;2.03;1.83;;;14.90;99.90;;;;;;4993712;28;20038;-87
2021/08/19 02:37:20;;;;;;;2.20;1.90;;;15.00;99.90;;;;;;5002479;28;20211;-90
2021/08/19 02:40:08;;;;;;;3.83;1.70;;;14.90;99.90;;;;;;4999101;28;20145;-87
2021/08/19 02:42:55;;;;;;;2.38;2.17;;;14.90;99.90;;;;;;4994384;28;20506;-89
2021/08/19 02:45:42;;;;;;;4.20;2.30;;;14.80;99.90;;;;;;4991896;28;20588;-90
2021/08/19 02:48:29;;;;;;;3.10;2.20;;;14.70;99.90;;;;;;4998462;28;20046;-87
2021/08/19 02:51:17;;;;;;;2.90;2.45;;;14.70;99.90;;;;;;5006774;28;20101;-87
2021/08/19 02:54:04;;;;;;;2.50;2.30;;;14.70;99.90;;;;;;4994754;28;20041;-88
2021/08/19 02:56:51;;;;;;;5.82;3.00;;;14.70;99.90;;;;;;4999855;28;20129;-87
2021/08/19 02:59:39;;;;;;;3.17;2.55;;;14.60;99.90;;;;;;4988309;28;20113;-89
2021/08/19 03:02:26;;;;;;;3.75;2.83;;;14.70;99.90;;;;;;5003158;28;20086;-88
2021/08/19 03:05:16;;;;;;;2.67;2.47;;;14.70;99.90;;;;;;5015993;28;20061;-89
2021/08/19 03:08:06;;;;;;;2.67;2.20;;;14.70;99.90;;;;;;5005337;28;20050;-90
2021/08/19 03:10:53;;;;;;;4.30;2.20;;;14.60;99.90;;;;;;4995936;28;20057;-88
2021/08/19 03:13:43;;;;;;;3.22;2.65;;;14.60;99.90;;;;;;5016410;28;20039;-89
2021/08/19 03:16:33;;;;;;;7.22;2.65;;;14.70;99.90;;;;;;5017396;28;20402;-88
2021/08/19 03:19:23;;;;;;;2.90;2.60;;;14.70;99.90;;;;;;5005670;28;20069;-86
2021/08/19 03:22:13;;;;;;;2.75;2.55;;;14.70;99.90;;;;;;5029547;28;20065;-91
2021/08/19 03:25:01;;;;;;;3.33;2.55;;;14.70;99.90;;;;;;5009709;28;20074;-91
2021/08/19 03:27:49;;;;;;;2.47;2.28;;;14.70;99.90;;;;;;5012228;28;20042;-89
2021/08/19 03:30:36;;;;;;;3.30;2.22;;;14.70;99.90;;;;;;4992201;28;20054;-90
2021/08/19 03:33:24;;;;;;;2.38;2.17;;;14.70;99.90;;;;;;5002791;28;20054;-90
2021/08/19 03:36:12;;;;;;;6.03;2.47;;;14.70;99.90;;;;;;5004927;28;20081;-89
2021/08/19 03:39:03;;;;;;;3.67;2.55;;;14.70;99.90;;;;;;5000665;28;20070;-89
2021/08/19 03:41:50;;;;;;;2.20;2.00;;;14.70;99.90;;;;;;4988031;28;20057;-86
2021/08/19 03:44:38;;;;;;;2.40;2.20;;;14.60;99.90;;;;;;5004059;28;20101;-87
2021/08/19 03:47:29;;;;;;;2.22;2.03;;;14.60;99.90;;;;;;5003056;28;20201;-90
2021/08/19 03:50:16;;;;;;;3.30;2.20;;;14.60;99.90;;;;;;5007327;28;20058;-89
2021/08/19 03:53:06;;;;;;;7.32;1.73;;;14.60;99.90;;;;;;4983195;28;20427;-88
2021/08/19 03:55:53;;;;;;;2.53;2.05;;;14.60;99.90;;;;;;4996161;28;20053;-88
2021/08/19 03:58:41;;;;;;;4.43;3.60;;;14.60;99.90;;;;;;4992700;28;20042;-90
2021/08/19 04:01:28;;;;;;;5.35;2.38;;;14.60;99.90;;;;;;5008193;28;20060;-90
2021/08/19 04:04:28;;;;;;;6.57;2.35;;;14.60;99.90;;;;;;5000409;28;20038;-88
2021/08/19 04:07:31;;;;;;;3.47;2.47;;;14.60;99.90;;;;;;4988837;28;20057;-89
2021/08/19 04:10:24;;;;;;;1.88;1.77;;;14.60;99.90;;;;;;5003454;28;20139;-88
2021/08/19 04:13:12;;;;;;;3.50;1.80;;;14.60;99.90;;;;;;5012365;28;20268;-87
2021/08/19 04:16:00;;;;;;;3.53;2.05;;;14.60;99.90;;;;;;4999618;28;20141;-89
2021/08/19 04:18:47;;;;;;;2.65;1.85;;;14.70;99.90;;;;;;5006320;28;20468;-90
2021/08/19 04:21:37;;;;;;;3.05;1.80;;;14.60;99.90;;;;;;5011020;28;20046;-88
2021/08/19 04:24:24;;;;;;;4.90;2.05;;;14.60;99.90;;;;;;5010075;28;20038;-87
2021/08/19 04:27:17;;;;;;;4.22;2.17;;;14.60;99.90;;;;;;5010884;28;20100;-88
2021/08/19 04:30:06;;;;;;;4.03;2.38;;;14.60;99.90;;;;;;5021315;28;20129;-88
2021/08/19 04:32:53;;;;;;;3.67;2.17;;;14.60;99.90;;;;;;5009983;28;20050;-87
2021/08/19 04:35:44;;;;;;;2.40;2.20;;;14.60;99.90;;;;;;5012921;28;20100;-88
2021/08/19 04:38:33;;;;;;;2.80;2.22;;;14.60;99.90;;;;;;4999500;28;20360;-86
2021/08/19 04:41:20;;;;;;;3.22;2.50;;;14.60;99.90;;;;;;4987904;28;20050;-86
2021/08/19 04:44:07;;;;;;;4.82;2.30;;;14.60;99.90;;;;;;5005536;28;20376;-89
2021/08/19 04:46:55;;;;;;;3.22;2.45;;;14.60;99.90;;;;;;5007306;28;20041;-90
2021/08/19 04:49:42;;;;;;;4.85;2.70;;;14.60;99.90;;;;;;5007752;28;20042;-88
2021/08/19 04:52:33;;;;;;;2.50;2.30;;;14.60;99.90;;;;;;5009466;28;20156;-88
2021/08/19 04:55:21;;;;;;;4.82;2.28;;;14.60;99.90;;;;;;4995124;28;20124;-89
2021/08/19 04:58:08;;;;;;;3.10;2.20;;;14.60;99.90;;;;;;5013582;28;20112;-91
2021/08/19 05:00:56;;;;;;;2.60;2.40;;;14.60;99.90;;;;;;5014466;28;20129;-91
2021/08/19 05:03:46;;;;;;;2.10;1.88;;;14.60;99.90;;;;;;5004563;28;20073;-88
2021/08/19 05:06:36;;;;;;;2.75;2.53;;;14.60;99.90;;;;;;4988871;28;20483;-91
2021/08/19 05:09:26;;;;;;;3.22;2.63;;;14.60;99.90;;;;;;5006671;28;20073;-87
2021/08/19 05:12:47;;;;;;;3.10;2.33;;;14.70;99.90;;;;;;5010181;28;20137;-91
2021/08/19 05:15:46;;;;;;;2.35;2.15;;;14.70;99.90;;;;;;5002417;28;20395;-93
2021/08/19 05:19:06;;;;;;;3.20;2.55;;;14.70;99.90;;;;;;5018424;28;20037;-92
2021/08/19 05:22:52;;;;;;;3.88;2.42;;;14.70;99.90;;;;;;5007038;28;20057;-92
2021/08/19 05:26:04;;;;;;;3.88;2.38;;;14.70;99.90;;;;;;5016046;28;20486;-94
2021/08/19 05:29:30;;;;;;;5.57;2.45;;;14.70;99.90;;;;;;5004320;28;20058;-94
2021/08/19 05:33:01;;;;;;;3.90;2.47;;;14.70;99.90;;;;;;4988404;28;20073;-90
2021/08/19 05:35:58;;;;;;;3.08;2.45;;;14.70;99.90;;;;;;5015993;28;20054;-92
2021/08/19 05:38:56;;;;;;;3.55;2.58;;;14.80;99.90;;;;;;4996144;28;20290;-92
2021/08/19 05:41:43;;;;;;;3.22;2.10;;;14.80;99.90;;;;;;4982440;28;20049;-93
2021/08/19 05:44:40;;;;;;;2.67;2.05;;;14.80;99.90;;;;;;5006638;28;20049;-90
2021/08/19 05:47:27;;;;;;;3.50;2.05;;;14.80;99.90;;;;;;5024536;28;20052;-91
2021/08/19 05:51:21;;;;;;;;;;;;;;;;;;;;;
2021/08/19 06:11:43;;;;;;;4.38;2.20;;;15.10;99.90;;;;;;4782441;29;20044;-94
2021/08/19 06:18:55;;;;;;;;;;;;;;;;;;;;;
2021/08/19 06:36:38;;;;;;;7.07;1.98;;;15.50;99.90;;;;;;5875362;22;8884362;-94
2021/08/19 06:43:30;;;;;;;;;;;;;;;;;;;;;
2021/08/19 06:46:55;;;;;;;2.88;1.60;;;16.00;99.90;;;;;;6102596;23;20065;-92
2021/08/19 06:50:27;;;;;;;2.40;1.80;;;16.10;99.90;;;;;;6109857;23;20041;-95
2021/08/19 06:53:38;;;;;;;1.52;1.20;;;16.30;99.90;;;;;;6104173;23;20038;-94
2021/08/19 06:57:04;;;;;;;;;;;;;;;;;;;;;
2021/08/19 06:59:58;;;;;;;5.32;1.67;;;16.60;99.90;;;;;;6046024;23;20447;-91
2021/08/19 07:03:06;;;;;;;2.72;1.80;;;16.70;99.90;;;;;;6020793;23;20034;-92
2021/08/19 07:06:51;;;;;;;2.90;1.70;;;16.70;99.90;;;;;;6055723;23;20038;-93
2021/08/19 07:10:46;;;;;;;;;;;;;;;;;;;;;
2021/08/19 07:14:00;;;;;;;4.28;1.50;;;16.50;99.90;;;;;;6064613;23;20104;-95
2021/08/19 07:17:18;;;;;;;2.75;1.70;;;16.50;99.90;;;;;;5992485;24;20024;-92
2021/08/19 07:21:57;;;;;;;;;;;;;;;;;;;;;
2021/08/19 07:24:50;;;;;;;5.05;1.92;;;16.80;99.90;;;;;;5881107;24;20022;-92
2021/08/19 07:37:48;;;;;;;3.25;1.60;;;17.60;99.90;;;;;;6241464;22;20043;-87
2021/08/19 07:44:42;;;;;;;1.90;1.52;;;18.10;99.90;;;;;;6207266;23;20163;-91
2021/08/19 07:47:43;;;;;;;;;;;;;;;;;;;;;
2021/08/19 07:54:56;;;;;;;1.73;1.30;;;19.50;99.90;;;;;;6194823;22;20016;-89
2021/08/19 07:58:03;;;;;;;2.88;1.20;;;19.80;99.90;;;;;;6278593;22;20031;-91
2021/08/19 08:01:42;;;;;;;;;;;;;;;;;;;;;
2021/08/19 08:05:22;;;;;;;3.47;1.20;;;19.70;99.90;;;;;;6096908;23;20362;-92
2021/08/19 08:08:52;;;;;;;1.25;1.15;;;20.30;99.90;;;;;;6079440;23;20029;-91
2021/08/19 08:12:02;;;;;;;1.85;1.00;;;20.40;99.90;;;;;;6054078;23;20473;-93
2021/08/19 08:27:00;;;;;;;;;;;;;;;;;;;;;
2021/08/19 08:30:50;;;;;;;;;;;;;;;;;;;;;
2021/08/19 08:34:01;;;;;;;6.15;1.27;;;21.70;99.90;;;;;;6049168;23;20165;-91
2021/08/19 08:36:50;;;;;;;1.15;0.95;;;21.40;99.90;;;;;;6107044;23;20021;-91
2021/08/19 08:39:59;;;;;;;3.03;1.27;;;21.60;99.90;;;;;;6109590;23;20077;-88
2021/08/19 08:42:47;;;;;;;;;;;21.70;99.90;;;;;;6095494;23;20026;-87
2021/08/19 08:46:38;;;;;;;2.42;0.90;;;21.90;99.90;;;;;;6137494;23;19916;-87
2021/08/19 08:49:46;;;;;;;;;;;;;;;;;;;;;
2021/08/19 08:53:18;;;;;;;1.10;1.00;;;21.60;99.90;;;;;;6191174;23;20040;-90
2021/08/19 08:56:13;;;;;;;3.35;0.90;;;21.60;99.90;;;;;;6188325;23;20025;-89
2021/08/19 08:59:23;;;;;;;;;;;;;;;;;;;;;
2021/08/19 09:03:04;;;;;;;2.30;0.93;;;22.00;99.70;;;;;;6066573;23;20023;-89
2021/08/19 09:11:16;;;;;;;;;;;;;;;;;;;;;
2021/08/19 10:31:08;;;;;;;1.92;1.00;;;19.60;99.90;;;;;;6266992;22;20099;-93
2021/08/19 10:39:09;;;;;;;1.33;0.93;;;19.90;99.90;;;;;;6157045;23;20017;-91
2021/08/19 10:42:36;;;;;;;3.42;1.00;;;20.50;99.90;;;;;;6066593;23;20032;-91
2021/08/19 10:56:45;;;;;;;2.70;1.10;;;21.10;97.30;;;;;;6045908;23;20046;-90
2021/08/19 11:00:21;;;;;;;1.45;0.82;;;21.20;97.60;;;;;;6208009;22;20035;-95
2021/08/19 11:03:38;;;;;;;0.70;0.68;;;21.60;96.50;;;;;;6216794;22;20123;-91
2021/08/19 11:07:03;;;;;;;;;;;;;;;;;;;;;
2021/08/19 11:10:12;;;;;;;1.60;0.95;;;22.40;93.20;;;;;;6275079;22;20024;-94
2021/08/19 11:13:19;;;;;;;0.80;0.80;;;23.00;92.60;;;;;;6280902;22;20047;-91
2021/08/19 11:16:15;;;;;;;1.38;0.80;;;22.70;92.00;;;;;;6263094;22;20458;-92
2021/08/19 11:20:10;;;;;;;;;;;;;;;;;;;;;
2021/08/19 11:36:28;;;;;;;0.60;0.60;;;21.60;92.70;;;;;;5939837;24;20040;-92
2021/08/19 11:48:29;;;;;;;0.60;0.60;;;22.50;94.10;;;;;;5824864;24;20019;-90
2021/08/19 11:51:45;;;;;;;1.48;0.57;;;22.60;87.50;;;;;;5936215;23;20016;-95
2021/08/19 11:54:57;;;;;;;0.82;0.70;;;22.60;91.00;;;;;;6016042;23;20412;-94
2021/08/19 11:58:36;;;;;;;0.93;0.55;;;22.90;91.70;;;;;;6014794;23;20027;-92
2021/08/19 12:01:54;;;;;;;2.15;0.90;;;23.50;83.70;;;;;;5963306;24;20021;-92
2021/08/19 12:04:43;;;;;;;0.70;0.70;;;23.40;83.20;;;;;;5959038;24;20108;-91
2021/08/19 12:11:59;;;;;;;1.00;0.63;;;23.80;81.80;;;;;;6047849;23;20023;-92
2021/08/19 12:14:48;;;;;;;1.25;0.60;;;24.10;79.40;;;;;;6057030;23;20031;-90
2021/08/19 12:18:37;;;;;;;;;;;;;;;;;;;;;
2021/08/19 12:24:54;;;;;;;2.58;0.80;;;25.90;70.00;;;;;;6155748;23;20232;-89
2021/08/19 12:28:22;;;;;;;2.70;0.80;;;26.20;65.70;;;;;;6036995;23;20127;-89
2021/08/19 12:31:12;;;;;;;1.60;0.88;;;25.90;64.50;;;;;;6057551;23;20102;-93
2021/08/19 12:34:02;;;;;;;1.90;1.02;;;24.80;63.80;;;;;;6067544;23;20110;-88
2021/08/19 12:36:50;;;;;;;1.63;1.20;;;24.60;65.80;;;;;;6066112;23;20046;-89
2021/08/19 12:39:46;;;;;;;0.77;0.77;;;24.90;73.90;;;;;;6068065;23;20026;-89
2021/08/19 12:42:37;;;;;;;0.88;0.70;;;25.00;69.10;;;;;;6047785;23;20031;-92
2021/08/19 12:45:24;;;;;;;1.55;0.98;;;24.40;70.00;;;;;;6120772;23;20730;-90
2021/08/19 12:48:19;;;;;;;0.90;0.80;;;23.40;72.90;;;;;;6164763;23;20111;-91
2021/08/19 12:51:26;;;;;;;0.85;0.82;;;23.30;75.00;;;;;;6182421;23;20034;-90
2021/08/19 12:54:21;;;;;;;1.27;0.90;;;23.10;75.40;;;;;;6161581;23;20122;-91
2021/08/19 12:57:10;;;;;;;1.17;0.80;;;23.00;77.70;;;;;;6186629;23;20394;-93
2021/08/19 13:00:04;;;;;;;1.45;0.88;;;23.00;77.80;;;;;;6182816;23;20032;-90
2021/08/19 13:02:58;;;;;;;1.10;1.00;;;23.00;77.20;;;;;;6186135;23;20024;-90
2021/08/19 13:05:48;;;;;;;2.17;1.00;;;23.30;76.80;;;;;;6164264;23;20048;-89
2021/08/19 13:08:35;;;;;;;1.08;0.95;;;23.70;76.20;;;;;;6186578;23;20421;-90
2021/08/19 13:11:25;;;;;;;0.80;0.80;;;24.20;77.00;;;;;;6163602;23;20090;-91
2021/08/19 13:14:14;;;;;;;1.85;0.90;;;24.20;74.00;;;;;;6212821;22;20028;-92
2021/08/19 13:17:02;;;;;;;1.92;1.27;;;24.20;76.30;;;;;;6255598;22;20071;-93
2021/08/19 13:19:50;;;;;;;1.50;0.90;;;23.80;77.40;;;;;;6257212;22;20031;-89
2021/08/19 13:22:38;;;;;;;1.20;1.10;;;23.40;75.80;;;;;;6259737;22;20042;-89
2021/08/19 13:25:28;;;;;;;1.10;0.90;;;23.30;78.40;;;;;;6284312;22;20027;-90
2021/08/19 13:28:28;;;;;;;2.90;0.90;;;23.70;77.60;;;;;;6264582;22;20051;-91
2021/08/19 13:31:18;;;;;;;1.63;0.90;;;23.80;77.50;;;;;;6290672;22;20020;-90
2021/08/19 13:34:08;;;;;;;1.05;0.90;;;24.20;78.50;;;;;;6273214;22;20085;-92
2021/08/19 13:36:58;;;;;;;1.48;1.20;;;24.10;74.80;;;;;;6256507;22;20019;-89
2021/08/19 13:39:49;;;;;;;1.83;0.95;;;24.30;78.80;;;;;;6300173;22;20008;-89
2021/08/19 13:42:41;;;;;;;2.20;1.08;;;24.40;73.10;;;;;;6296675;22;20023;-90
2021/08/19 13:45:35;;;;;;;2.67;1.02;;;24.60;77.10;;;;;;6296790;22;20011;-90
2021/08/19 13:48:30;;;;;;;3.63;1.23;;;24.50;75.50;;;;;;6297177;22;20073;-91
2021/08/19 13:51:22;;;;;;;2.35;1.20;;;24.50;76.20;;;;;;6268842;22;20031;-90
2021/08/19 13:54:14;;;;;;;2.38;1.10;;;24.70;70.50;;;;;;6264469;22;20027;-91
2021/08/19 13:57:04;;;;;;;1.83;1.00;;;24.80;75.80;;;;;;6278165;22;20023;-89
2021/08/19 13:59:54;;;;;;;3.35;1.05;;;24.70;77.90;;;;;;6281255;22;20054;-91
2021/08/19 14:02:42;;;;;;;2.70;1.20;;;24.60;78.70;;;;;;6280004;22;20027;-90
2021/08/19 14:05:32;;;;;;;1.13;0.90;;;24.50;76.30;;;;;;6283141;22;20047;-94
2021/08/19 14:08:19;;;;;;;1.55;1.00;;;24.40;77.40;;;;;;6268142;22;20102;-93
2021/08/19 14:11:08;;;;;;;1.35;1.25;;;24.40;77.50;;;;;;6263191;22;20024;-94
2021/08/19 14:14:01;;;;;;;1.10;1.00;;;24.10;83.70;;;;;;6264139;22;20055;-93
2021/08/19 14:16:52;;;;;;;1.50;1.00;;;23.90;81.50;;;;;;6248565;22;20023;-95
2021/08/19 14:19:41;;;;;;;1.38;1.23;;;23.90;81.30;;;;;;6283782;22;20039;-94
2021/08/19 14:23:48;;;;;;;1.90;0.90;;;23.90;82.10;;;;;;6193408;23;20095;-94
2021/08/19 14:27:21;;;;;;;1.48;1.20;;;23.70;85.00;;;;;;6189664;23;20024;-92
2021/08/19 14:39:33;;;;;;;;;;;;;;;;;;;;;
2021/08/19 14:58:45;;;;;;;1.40;1.30;;;23.40;88.20;;;;;;6158140;22;20119;-92
2021/08/19 15:01:49;;;;;;;3.43;1.20;;;23.30;91.00;;;;;;6260195;22;20016;-93
2021/08/19 15:04:36;;;;;;;1.92;0.88;;;23.40;91.40;;;;;;6266698;22;20625;-92
2021/08/19 15:08:04;;;;;;;4.30;1.10;;;23.10;90.70;;;;;;6154024;23;20108;-94
2021/08/19 15:10:53;;;;;;;1.10;1.00;;;23.10;89.90;;;;;;6186534;23;20168;-90
2021/08/19 15:13:53;;;;;;;;;;;;;;;;;;;;;
2021/08/19 15:17:28;;;;;;;;;;;;;;;;;;;;;
2021/08/19 15:20:25;;;;;;;2.45;1.10;;;23.00;92.50;;;;;;6200579;23;20017;-93
2021/08/19 15:25:50;;;;;;;4.40;4.00;;;22.90;92.20;;;;;;6230658;23;20025;-90
2021/08/19 15:28:56;;;;;;;2.38;1.30;;;22.70;92.70;;;;;;6097255;23;20040;-92
2021/08/19 15:31:50;;;;;;;3.30;1.50;;;22.70;91.90;;;;;;6168155;23;20049;-95
2021/08/19 15:34:50;;;;;;;1.55;1.17;;;22.80;93.10;;;;;;6163741;23;20045;-92
2021/08/19 15:37:38;;;;;;;3.20;1.17;;;22.60;94.10;;;;;;6160488;23;20423;-88
2021/08/19 15:40:25;;;;;;;2.97;1.10;;;22.50;93.30;;;;;;6157778;23;20512;-91
2021/08/19 15:43:18;;;;;;;2.03;1.30;;;22.50;93.90;;;;;;6157499;23;20035;-91
2021/08/19 15:49:39;;;;;;;1.50;1.08;;;22.40;94.00;;;;;;6085106;23;20161;-92
2021/08/19 15:52:30;;;;;;;1.83;1.15;;;22.30;94.20;;;;;;6159610;23;20037;-91
2021/08/19 15:55:34;;;;;;;2.53;1.25;;;22.30;93.80;;;;;;6154570;23;20130;-94
2021/08/19 15:58:51;;;;;;;1.65;1.15;;;22.50;93.00;;;;;;6158854;23;20034;-93
2021/08/19 16:01:52;;;;;;;1.33;1.20;;;22.50;94.60;;;;;;6155731;23;20037;-91
2021/08/19 16:06:15;;;;;;;;;;;;;;;;;;;;;
2021/08/19 16:09:10;;;;;;;1.35;1.00;;;22.50;92.90;;;;;;6105251;23;20197;-93
2021/08/19 16:12:25;;;;;;;1.42;0.90;;;22.40;93.50;;;;;;6109710;23;20033;-93
2021/08/19 16:23:25;;;;;;;;;;;;;;;;;;;;;
2021/08/19 16:27:06;;;;;;;;;;;;;;;;;;;;;
2021/08/19 16:31:02;;;;;;;;;;;;;;;;;;;;;
2021/08/19 16:38:58;;;;;;;;;;;;;;;;;;;;;
2021/08/19 16:42:39;;;;;;;1.88;1.10;;;21.60;94.90;;;;;;5124693;28;20043;-92
2021/08/19 16:53:45;;;;;;;1.27;1.17;;;21.10;96.50;;;;;;5005195;28;20128;-90
2021/08/19 16:56:54;;;;;;;1.30;1.20;;;20.90;95.10;;;;;;5015394;28;20041;-91
2021/08/19 17:03:51;;;;;;;1.45;0.80;;;20.60;95.30;;;;;;5108725;28;20128;-91
2021/08/19 17:07:09;;;;;;;;;;;;;;;;;;;;;
2021/08/19 17:10:09;;;;;;;1.88;1.02;;;20.50;96.40;;;;;;5125196;27;20451;-91
2021/08/19 17:13:30;;;;;;;1.38;0.77;;;20.30;95.50;;;;;;5119811;28;20126;-94
2021/08/19 17:16:36;;;;;;;;;;;;;;;;;;;;;
2021/08/19 17:19:51;;;;;;;1.17;0.80;;;20.10;97.30;;;;;;5116176;28;20051;-92
2021/08/19 17:23:22;;;;;;;;;;;;;;;;;;;;;
2021/08/19 17:30:24;;;;;;;1.45;1.00;;;19.90;97.30;;;;;;4979959;28;20113;-93
2021/08/19 17:33:20;;;;;;;0.88;0.70;;;19.80;97.70;;;;;;4972889;28;20495;-93
2021/08/19 17:40:54;;;;;;;;;;;;;;;;;;;;;
2021/08/19 17:44:06;;;;;;;3.80;1.00;;;19.50;99.90;;;;;;4955924;28;20035;-92
2021/08/19 17:47:50;;;;;;;;;;;;;;;;;;;;;
2021/08/19 17:50:41;;;;;;;1.42;0.82;;;19.10;99.90;;;;;;5071840;28;20055;-92
2021/08/19 17:53:31;;;;;;;1.13;1.00;;;19.00;99.90;;;;;;5070623;28;20065;-92
2021/08/19 17:56:30;;;;;;;2.05;1.15;;;18.90;99.90;;;;;;5097973;28;20047;-92
2021/08/19 17:59:40;;;;;;;1.63;1.10;;;18.90;99.90;;;;;;5108582;28;20141;-91
2021/08/19 18:02:28;;;;;;;9.10;1.48;;;18.80;99.90;;;;;;5119460;28;20054;-92
2021/08/19 18:05:44;;;;;;;1.40;1.30;;;18.70;99.90;;;;;;5120661;28;20040;-90
2021/08/19 18:08:53;;;;;;;3.65;1.58;;;18.70;99.90;;;;;;5045377;28;20068;-92
2021/08/19 18:11:53;;;;;;;3.25;1.85;;;18.60;99.90;;;;;;5044786;28;20339;-92
2021/08/19 18:19:10;;;;;;;1.95;1.58;;;18.50;99.90;;;;;;4932626;29;20054;-91
2021/08/19 18:26:19;;;;;;;1.60;1.50;;;18.40;99.90;;;;;;4916078;29;20100;-93
2021/08/19 18:33:39;;;;;;;2.25;1.60;;;18.20;99.90;;;;;;4829738;29;20045;-92
2021/08/19 18:37:11;;;;;;;;;;;;;;;;;;;;;
2021/08/19 18:45:44;;;;;;;;;;;;;;;;;;;;;
2021/08/19 18:49:28;;;;;;;1.98;1.70;;;18.10;99.90;;;;;;4835633;29;20053;-91
2021/08/19 18:52:57;;;;;;;2.75;1.95;;;18.10;99.90;;;;;;4943169;29;20043;-92
2021/08/19 18:55:57;;;;;;;4.15;2.17;;;18.10;99.90;;;;;;5010533;28;20109;-90
2021/08/19 18:59:31;;;;;;;;;;;;;;;;;;;;;
2021/08/19 19:03:04;;;;;;;3.55;2.30;;;17.90;99.90;;;;;;4916635;29;20040;-92
2021/08/19 19:06:47;;;;;;;;;;;;;;;;;;;;;
2021/08/19 19:14:53;;;;;;;;;;;;;;;;;;;;;
2021/08/19 19:18:51;;;;;;;;;;;;;;;;;;;;;
2021/08/19 19:22:03;;;;;;;4.22;2.10;;;17.60;99.90;;;;;;4900451;29;20056;-91
2021/08/19 19:25:05;;;;;;;2.30;1.92;;;17.60;99.90;;;;;;4974079;28;20058;-91
2021/08/19 19:28:39;;;;;;;3.08;1.83;;;17.60;99.90;;;;;;5010776;28;20053;-91
2021/08/19 19:31:38;;;;;;;2.90;1.92;;;17.60;99.90;;;;;;5021184;28;20081;-91
2021/08/19 19:34:49;;;;;;;2.58;2.00;;;17.60;99.90;;;;;;5021329;28;20128;-92
2021/08/19 19:38:19;;;;;;;;;;;;;;;;;;;;;
2021/08/19 19:42:41;;;;;;;2.60;1.80;;;17.60;99.90;;;;;;5036094;28;20048;-92
2021/08/19 19:49:31;;;;;;;4.80;1.60;;;17.60;99.90;;;;;;4923000;29;20043;-91
2021/08/19 19:52:39;;;;;;;;;;;;;;;;;;;;;
2021/08/19 19:56:00;;;;;;;;;;;;;;;;;;;;;
2021/08/19 19:59:33;;;;;;;;;;;;;;;;;;;;;
2021/08/19 20:07:19;;;;;;;;;;;;;;;;;;;;;
2021/08/19 20:11:21;;;;;;;2.53;1.50;;;17.50;99.90;;;;;;4908393;29;20142;-92
2021/08/19 20:15:07;;;;;;;;;;;;;;;;;;;;;
2021/08/19 20:18:05;;;;;;;1.63;1.40;;;17.40;99.90;;;;;;4862868;29;20507;-92
2021/08/19 20:21:31;;;;;;;2.50;1.70;;;17.40;99.90;;;;;;4918224;28;20043;-91
2021/08/19 20:29:02;;;;;;;2.33;1.67;;;17.30;99.90;;;;;;4870603;29;20122;-91
2021/08/19 20:32:02;;;;;;;3.30;1.77;;;17.40;99.90;;;;;;4857463;29;20088;-91
2021/08/19 20:35:26;;;;;;;;;;;;;;;;;;;;;
2021/08/19 20:38:58;;;;;;;;;;;;;;;;;;;;;
2021/08/19 20:42:29;;;;;;;;;;;;;;;;;;;;;
2021/08/19 20:46:29;;;;;;;;;;;;;;;;;;;;;
2021/08/19 20:53:26;;;;;;;3.47;1.50;;;17.50;99.90;;;;;;4836733;29;20050;-92
2021/08/19 20:56:52;;;;;;;2.30;1.67;;;17.50;99.90;;;;;;4831417;29;20046;-91
2021/08/19 21:00:51;;;;;;;3.47;1.85;;;17.50;99.90;;;;;;4862617;29;20075;-91
2021/08/19 21:04:32;;;;;;;4.20;2.00;;;17.40;99.90;;;;;;4904260;29;20031;-91
2021/08/19 21:12:23;;;;;;;;;;;;;;;;;;;;;
2021/08/19 21:15:31;;;;;;;3.35;2.25;;;17.40;99.90;;;;;;4932997;29;20087;-92
2021/08/19 21:22:51;;;;;;;4.57;2.17;;;17.30;99.90;;;;;;4882832;29;20076;-91
2021/08/19 21:29:34;;;;;;;3.10;2.30;;;17.20;99.90;;;;;;4978192;28;20468;-93
2021/08/19 21:33:22;;;;;;;;;;;;;;;;;;;;;
2021/08/19 21:36:56;;;;;;;2.90;2.35;;;17.10;99.90;;;;;;4901484;29;20044;-92
2021/08/19 21:40:27;;;;;;;3.78;3.17;;;17.00;99.90;;;;;;4910268;29;20527;-92
2021/08/19 21:44:17;;;;;;;;;;;;;;;;;;;;;
2021/08/19 21:47:35;;;;;;;3.25;2.83;;;16.90;99.90;;;;;;4891346;29;20059;-91
2021/08/19 21:51:15;;;;;;;;;;;;;;;;;;;;;
2021/08/19 21:54:46;;;;;;;;;;;;;;;;;;;;;
2021/08/19 21:58:39;;;;;;;;;;;;;;;;;;;;;
2021/08/19 22:02:20;;;;;;;;;;;;;;;;;;;;;
2021/08/19 22:06:19;;;;;;;2.63;2.42;;;16.30;99.90;;;;;;4760139;30;20286;-92
2021/08/19 22:13:46;;;;;;;;;;;;;;;;;;;;;
2021/08/19 22:16:56;;;;;;;4.35;3.30;;;16.30;99.90;;;;;;4822818;29;20353;-92
2021/08/19 22:20:42;;;;;;;;;;;;;;;;;;;;;
2021/08/19 22:31:59;;;;;;;5.47;3.20;;;16.00;99.90;;;;;;4794927;29;20169;-93
2021/08/19 22:35:27;;;;;;;4.85;3.53;;;16.00;99.90;;;;;;4774686;30;20036;-93
2021/08/19 22:38:12;;;;;;;5.18;3.67;;;16.00;99.90;;;;;;4843177;29;20058;-93
2021/08/19 22:41:39;;;;;;;3.63;3.33;;;16.00;99.90;;;;;;4830008;29;20058;-92
2021/08/19 22:45:41;;;;;;;;;;;;;;;;;;;;;